Ovalo, Texas
Current Conditions -  °F | °C
As of 5:58 AM on Friday 28 Nov 2014 (Local Time) from KDYS Reporting Station
Clear Clear  
Wind Chill: 43°   Ceiling: Unl
Heat Index: 48°   Visibility: 10mi
Dew Point: 36°   Wind: 12mph
Humidity: 62%   Direction: 220°SW
Pressure: 30.17"   Gusts: NA
Location:  32.17°N, 99.81°W
Report Text: KDYS 281158Z AUTO 22010KT 10SM CLR 09/02 A3017 RMK AO2 SLP209 T00890020 10101 20087 58015 $
Loading
Personal Weather Stations






























Interactive Weather Map New forecast layout! Learn more

10-Day Weather Forecast

Advertisements
Track Severe Weather on mobile